createdAt,value
2017-04-12T00:00:38.774Z,0
2017-04-12T00:02:00.859Z,0
2017-04-12T00:03:21.231Z,0
2017-04-12T00:04:35.048Z,0
2017-04-12T00:05:49.488Z,0
2017-04-12T00:07:08.632Z,0
2017-04-12T00:08:21.828Z,0
2017-04-12T00:09:38.658Z,0
2017-04-12T00:10:52.491Z,0
2017-04-12T00:12:06.950Z,0
2017-04-12T00:13:26.672Z,0
2017-04-12T00:14:40.538Z,0
2017-04-12T00:15:54.375Z,0
2017-04-12T00:17:19.939Z,0
2017-04-12T00:18:36.677Z,0
2017-04-12T00:19:52.918Z,0
2017-04-12T00:21:13.281Z,0
2017-04-12T00:22:41.204Z,0
2017-04-12T00:23:55.074Z,0
2017-04-12T00:25:14.805Z,0
2017-04-12T00:26:37.471Z,0
2017-04-12T00:27:56.589Z,0
2017-04-12T00:29:11.023Z,0
2017-04-12T00:30:24.924Z,0
2017-04-12T00:31:38.872Z,0
2017-04-12T00:32:55.688Z,0
2017-04-12T00:34:12.379Z,0
2017-04-12T00:35:26.850Z,0
2017-04-12T00:36:46.566Z,0
2017-04-12T00:37:59.832Z,0
2017-04-12T00:39:13.711Z,0
2017-04-12T00:40:33.446Z,0
2017-04-12T00:41:50.274Z,0
2017-04-12T00:43:07.061Z,0
2017-04-12T00:44:20.927Z,0
2017-04-12T00:45:34.287Z,0
2017-04-12T00:46:47.421Z,0
2017-04-12T00:48:01.281Z,0
2017-04-12T00:49:18.003Z,0
2017-04-12T00:50:34.730Z,0
2017-04-12T00:51:51.571Z,0
2017-04-12T00:53:04.817Z,0
2017-04-12T00:54:22.229Z,0
2017-04-12T00:55:36.658Z,0
2017-04-12T00:56:54.078Z,0
2017-04-12T00:58:06.785Z,0
2017-04-12T00:59:26.511Z,0
2017-04-12T01:00:40.225Z,0
2017-04-12T01:01:57.623Z,0
2017-04-12T01:03:19.702Z,0
2017-04-12T01:04:33.553Z,0
2017-04-12T01:05:48.005Z,0
2017-04-12T01:07:04.798Z,0
2017-04-12T01:08:18.629Z,0
2017-04-12T01:09:32.481Z,0
2017-04-12T01:10:46.362Z,0
2017-04-12T01:12:03.204Z,0
2017-04-12T01:13:23.580Z,0
2017-04-12T01:14:43.344Z,0
2017-04-12T01:16:00.164Z,0
2017-04-12T01:17:16.488Z,0
2017-04-12T01:18:33.277Z,0
2017-04-12T01:19:47.188Z,0
2017-04-12T01:21:04.633Z,0
2017-04-12T01:22:24.965Z,0
2017-04-12T01:23:41.766Z,0
2017-04-12T01:24:58.585Z,0
2017-04-12T01:26:15.952Z,0
2017-04-12T01:27:32.783Z,0
2017-04-12T01:28:55.447Z,0
2017-04-12T01:30:14.608Z,0
2017-04-12T01:31:31.281Z,0
2017-04-12T01:32:47.433Z,0
2017-04-12T01:34:04.241Z,0
2017-04-12T01:35:17.472Z,0
2017-04-12T01:36:34.326Z,0
2017-04-12T01:37:51.712Z,0
2017-04-12T01:39:06.127Z,0
2017-04-12T01:40:19.460Z,0
2017-04-12T01:41:36.305Z,0
2017-04-12T01:42:58.923Z,0
2017-04-12T01:44:11.609Z,0
2017-04-12T01:45:26.140Z,0
2017-04-12T01:46:38.854Z,0
2017-04-12T01:47:58.631Z,0
2017-04-12T01:49:11.443Z,0
2017-04-12T01:50:25.254Z,0
2017-04-12T01:51:45.595Z,0
2017-04-12T01:53:02.933Z,0
2017-04-12T01:54:15.652Z,0
2017-04-12T01:55:35.397Z,0
2017-04-12T01:56:51.450Z,0
2017-04-12T01:58:05.287Z,0
2017-04-12T01:59:21.575Z,0
2017-04-12T02:00:35.397Z,0
2017-04-12T02:01:52.756Z,0
2017-04-12T02:03:06.717Z,0
2017-04-12T02:04:20.593Z,0
2017-04-12T02:05:37.954Z,0
2017-04-12T02:06:54.756Z,0
2017-04-12T02:08:20.431Z,0
2017-04-12T02:09:37.236Z,0
2017-04-12T02:10:53.380Z,0
2017-04-12T02:12:09.145Z,0
2017-04-12T02:13:22.986Z,0
2017-04-12T02:14:48.675Z,0
2017-04-12T02:16:08.392Z,0
2017-04-12T02:17:22.287Z,0
2017-04-12T02:18:36.157Z,0
2017-04-12T02:19:53.587Z,0
2017-04-12T02:21:10.344Z,0
2017-04-12T02:22:27.100Z,0
2017-04-12T02:23:41.551Z,0
2017-04-12T02:24:55.432Z,0
2017-04-12T02:26:15.769Z,0
2017-04-12T02:27:38.416Z,0
2017-04-12T02:28:55.235Z,0
2017-04-12T02:30:12.607Z,0
2017-04-12T02:31:30.042Z,0
2017-04-12T02:32:46.719Z,0
2017-04-12T02:34:01.096Z,0
2017-04-12T02:35:14.400Z,0
2017-04-12T02:36:31.800Z,0
2017-04-12T02:37:45.613Z,0
2017-04-12T02:38:58.951Z,0
2017-04-12T02:40:12.215Z,0
2017-04-12T02:41:34.164Z,0
2017-04-12T02:42:48.036Z,0
2017-04-12T02:44:01.435Z,0
2017-04-12T02:45:18.214Z,0
2017-04-12T02:46:32.075Z,0
2017-04-12T02:47:54.116Z,0
2017-04-12T02:49:08.526Z,0
2017-04-12T02:50:25.269Z,0
2017-04-12T02:51:38.035Z,0
2017-04-12T02:52:50.750Z,0
2017-04-12T02:54:04.601Z,0
2017-04-12T02:55:18.919Z,0
2017-04-12T02:56:32.742Z,0
2017-04-12T02:57:50.126Z,0
2017-04-12T02:59:09.836Z,0
2017-04-12T03:00:23.194Z,0
2017-04-12T03:01:36.946Z,0
2017-04-12T03:02:50.762Z,0
2017-04-12T03:04:09.874Z,0
2017-04-12T03:05:26.622Z,0
2017-04-12T03:06:40.527Z,0
2017-04-12T03:07:57.867Z,0
2017-04-12T03:09:17.523Z,0
2017-04-12T03:10:37.337Z,0
2017-04-12T03:11:56.473Z,0
2017-04-12T03:13:09.703Z,0
2017-04-12T03:14:27.130Z,0
2017-04-12T03:15:43.956Z,0
2017-04-12T03:16:58.419Z,0
2017-04-12T03:18:11.247Z,0
2017-04-12T03:19:27.928Z,0
2017-04-12T03:20:41.837Z,0
2017-04-12T03:21:55.068Z,0
2017-04-12T03:23:08.926Z,0
2017-04-12T03:24:29.321Z,0
2017-04-12T03:25:42.698Z,0
2017-04-12T03:26:55.970Z,0
2017-04-12T03:28:10.440Z,0
2017-04-12T03:29:24.883Z,0
2017-04-12T03:30:42.281Z,0
2017-04-12T03:31:56.187Z,0
2017-04-12T03:33:13.043Z,0
2017-04-12T03:34:35.702Z,0
2017-04-12T03:35:55.391Z,0
2017-04-12T03:37:08.732Z,0
2017-04-12T03:38:22.573Z,0
2017-04-12T03:39:36.399Z,0
2017-04-12T03:40:49.729Z,0
2017-04-12T03:42:04.062Z,0
2017-04-12T03:43:23.726Z,0
2017-04-12T03:44:38.152Z,0
2017-04-12T03:45:54.926Z,0
2017-04-12T03:47:11.168Z,0
2017-04-12T03:48:25.613Z,0
2017-04-12T03:49:51.295Z,0
2017-04-12T03:51:08.053Z,0
2017-04-12T03:52:21.983Z,0
2017-04-12T03:53:38.812Z,0
2017-04-12T03:55:01.499Z,0
2017-04-12T03:56:15.896Z,0
2017-04-12T03:57:33.280Z,0
2017-04-12T03:58:52.976Z,0
2017-04-12T04:00:09.255Z,0
2017-04-12T04:01:23.686Z,0
2017-04-12T04:02:43.398Z,0
2017-04-12T04:03:56.663Z,0
2017-04-12T04:05:14.055Z,0
2017-04-12T04:06:30.375Z,0
2017-04-12T04:07:47.500Z,0
2017-04-12T04:09:01.991Z,0
2017-04-12T04:10:18.800Z,0
2017-04-12T04:11:36.240Z,0
2017-04-12T04:12:50.707Z,0
2017-04-12T04:14:04.510Z,0
2017-04-12T04:15:21.222Z,0
2017-04-12T04:16:34.622Z,0
2017-04-12T04:17:52.014Z,0
2017-04-12T04:19:06.502Z,0
2017-04-12T04:20:26.159Z,0
2017-04-12T04:21:43.509Z,0
2017-04-12T04:23:03.236Z,0
2017-04-12T04:24:22.885Z,0
2017-04-12T04:25:36.744Z,0
2017-04-12T04:26:50.613Z,0
2017-04-12T04:28:07.969Z,0
2017-04-12T04:29:24.793Z,0
2017-04-12T04:30:44.591Z,0
2017-04-12T04:31:58.451Z,0
2017-04-12T04:33:14.691Z,0
2017-04-12T04:34:34.386Z,0
2017-04-12T04:36:02.297Z,0
2017-04-12T04:37:15.399Z,0
2017-04-12T04:38:29.234Z,0
2017-04-12T04:39:43.633Z,0
2017-04-12T04:40:57.357Z,0
2017-04-12T04:42:10.061Z,0
2017-04-12T04:43:24.517Z,0
2017-04-12T04:44:40.794Z,0
2017-04-12T04:46:02.909Z,0
2017-04-12T04:47:22.627Z,0
2017-04-12T04:48:36.556Z,0
2017-04-12T04:49:55.589Z,0
2017-04-12T04:51:15.314Z,0
2017-04-12T04:52:28.551Z,0
2017-04-12T04:53:43.017Z,0
2017-04-12T04:55:00.510Z,0
2017-04-12T04:56:14.266Z,0
2017-04-12T04:57:31.073Z,0
2017-04-12T04:58:44.979Z,0
2017-04-12T04:59:59.508Z,0
2017-04-12T05:01:19.239Z,0
2017-04-12T05:02:39.610Z,0
2017-04-12T05:03:56.351Z,0
2017-04-12T05:05:15.958Z,0
2017-04-12T05:06:38.644Z,0
2017-04-12T05:07:52.463Z,0
2017-04-12T05:09:11.457Z,0
2017-04-12T05:10:25.956Z,0
2017-04-12T05:11:46.354Z,0
2017-04-12T05:13:00.192Z,0
2017-04-12T05:14:16.986Z,0
2017-04-12T05:15:39.697Z,0
2017-04-12T05:16:53.603Z,0
2017-04-12T05:18:13.345Z,0
2017-04-12T05:19:30.097Z,0
2017-04-12T05:20:46.885Z,0
2017-04-12T05:22:06.598Z,0
2017-04-12T05:23:26.331Z,0
2017-04-12T05:24:43.103Z,0
2017-04-12T05:26:05.737Z,0
2017-04-12T05:27:20.073Z,0
2017-04-12T05:28:33.420Z,0
2017-04-12T05:29:50.782Z,0
2017-04-12T05:31:05.202Z,0
2017-04-12T05:32:21.995Z,0
2017-04-12T05:33:35.359Z,0
2017-04-12T05:34:49.694Z,0
2017-04-12T05:36:09.433Z,0
2017-04-12T05:37:28.611Z,0
2017-04-12T05:38:45.454Z,0
2017-04-12T05:39:59.298Z,0
2017-04-12T05:41:19.635Z,0
2017-04-12T05:42:32.860Z,0
2017-04-12T05:43:49.643Z,0
2017-04-12T05:45:03.452Z,0
2017-04-12T05:46:20.229Z,0
2017-04-12T05:47:34.622Z,0
2017-04-12T05:48:47.865Z,0
2017-04-12T05:50:01.728Z,0
2017-04-12T05:51:17.962Z,0
2017-04-12T05:52:31.193Z,0
2017-04-12T05:53:48.464Z,0
2017-04-12T05:55:05.790Z,0
2017-04-12T05:56:19.583Z,0
2017-04-12T05:57:34.049Z,0
2017-04-12T05:58:48.495Z,0
2017-04-12T06:00:11.119Z,0
2017-04-12T06:01:30.866Z,0
2017-04-12T06:02:52.940Z,0
2017-04-12T06:04:09.176Z,0
2017-04-12T06:05:24.807Z,0
2017-04-12T06:06:39.224Z,0
2017-04-12T06:07:53.035Z,0
2017-04-12T06:09:10.403Z,0
2017-04-12T06:10:30.170Z,0
2017-04-12T06:11:52.847Z,0
2017-04-12T06:13:07.334Z,0
2017-04-12T06:14:20.124Z,0
2017-04-12T06:15:33.330Z,0
2017-04-12T06:16:47.779Z,0
2017-04-12T06:18:05.185Z,0
2017-04-12T06:19:21.961Z,0
2017-04-12T06:20:41.090Z,0
2017-04-12T06:21:56.211Z,0
2017-04-12T06:23:13.026Z,0
2017-04-12T06:24:27.512Z,0
2017-04-12T06:25:44.869Z,0
2017-04-12T06:27:02.243Z,0
2017-04-12T06:28:30.198Z,0
2017-04-12T06:29:49.889Z,0
2017-04-12T06:31:07.267Z,0
2017-04-12T06:32:26.961Z,0
2017-04-12T06:33:49.596Z,0
2017-04-12T06:35:03.313Z,0
2017-04-12T06:36:20.628Z,0
2017-04-12T06:37:43.339Z,0
2017-04-12T06:38:57.788Z,0
2017-04-12T06:40:11.684Z,0
2017-04-12T06:41:28.473Z,0
2017-04-12T06:42:42.943Z,0
2017-04-12T06:44:00.309Z,0
2017-04-12T06:45:14.162Z,0
2017-04-12T06:46:36.747Z,0
2017-04-12T06:47:51.239Z,0
2017-04-12T06:49:04.485Z,0
2017-04-12T06:50:17.876Z,0
2017-04-12T06:51:34.677Z,0
2017-04-12T06:52:55.026Z,0
2017-04-12T06:54:22.957Z,0
2017-04-12T06:55:36.776Z,0
2017-04-12T06:56:59.437Z,0
2017-04-12T06:58:13.284Z,0
2017-04-12T06:59:27.081Z,0
2017-04-12T07:00:46.843Z,0
2017-04-12T07:02:01.309Z,0
2017-04-12T07:03:14.684Z,0
2017-04-12T07:04:42.592Z,0
2017-04-12T07:05:58.827Z,0
2017-04-12T07:07:15.060Z,0
2017-04-12T07:08:34.290Z,0
2017-04-12T07:09:48.098Z,0
2017-04-12T07:11:07.828Z,0
2017-04-12T07:12:21.660Z,0
2017-04-12T07:13:34.926Z,0
2017-04-12T07:14:48.805Z,0
2017-04-12T07:16:03.284Z,0
2017-04-12T07:17:20.059Z,0
2017-04-12T07:18:34.010Z,0
2017-04-12T07:19:47.843Z,0
2017-04-12T07:21:02.295Z,0
2017-04-12T07:22:15.424Z,0
2017-04-12T07:23:29.848Z,0
2017-04-12T07:24:44.340Z,0
2017-04-12T07:25:58.176Z,0
2017-04-12T07:27:23.778Z,0
2017-04-12T07:28:37.676Z,0
2017-04-12T07:29:51.420Z,0
2017-04-12T07:31:11.715Z,0
2017-04-12T07:32:34.384Z,0
2017-04-12T07:33:54.125Z,0
2017-04-12T07:35:14.448Z,0
2017-04-12T07:36:33.690Z,0
2017-04-12T07:37:50.412Z,0
2017-04-12T07:39:04.255Z,0
2017-04-12T07:40:18.690Z,0
2017-04-12T07:41:35.438Z,0
2017-04-12T07:42:49.383Z,0
2017-04-12T07:44:03.247Z,0
2017-04-12T07:45:22.977Z,0
2017-04-12T07:46:37.424Z,0
2017-04-12T07:47:50.239Z,0
2017-04-12T07:49:04.177Z,0
2017-04-12T07:50:21.566Z,0
2017-04-12T07:51:37.269Z,0
2017-04-12T07:52:56.557Z,0
2017-04-12T07:54:10.399Z,0
2017-04-12T07:55:30.130Z,0
2017-04-12T07:56:44.045Z,0
2017-04-12T07:58:00.342Z,0
2017-04-12T07:59:14.166Z,0
2017-04-12T08:00:30.867Z,0
2017-04-12T08:01:44.899Z,0
2017-04-12T08:03:01.103Z,0
2017-04-12T08:04:15.577Z,0
2017-04-12T08:05:35.267Z,0
2017-04-12T08:06:54.361Z,0
2017-04-12T08:08:13.959Z,0
2017-04-12T08:09:30.536Z,0
2017-04-12T08:10:46.180Z,0
2017-04-12T08:11:59.389Z,0
2017-04-12T08:13:16.768Z,0
2017-04-12T08:14:30.268Z,0
2017-04-12T08:15:47.008Z,0
2017-04-12T08:17:00.809Z,0
2017-04-12T08:18:14.138Z,0
2017-04-12T08:19:29.881Z,0
2017-04-12T08:20:52.509Z,0
2017-04-12T08:22:06.387Z,0
2017-04-12T08:23:29.017Z,0
2017-04-12T08:24:41.622Z,0
2017-04-12T08:25:54.960Z,0
2017-04-12T08:27:17.589Z,0
2017-04-12T08:28:30.368Z,0
2017-04-12T08:29:44.183Z,0
2017-04-12T08:30:58.036Z,0
2017-04-12T08:32:11.934Z,0
2017-04-12T08:33:25.798Z,0
2017-04-12T08:34:43.200Z,0
2017-04-12T08:36:02.246Z,0
2017-04-12T08:37:16.145Z,0
2017-04-12T08:38:32.425Z,0
2017-04-12T08:39:52.024Z,0
2017-04-12T08:41:06.402Z,0
2017-04-12T08:42:20.850Z,0
2017-04-12T08:43:34.680Z,0
2017-04-12T08:44:51.353Z,0
2017-04-12T08:46:04.540Z,0
2017-04-12T08:47:18.391Z,0
2017-04-12T08:48:31.753Z,0
2017-04-12T08:49:52.115Z,0
2017-04-12T08:51:05.806Z,0
2017-04-12T08:52:19.493Z,0
2017-04-12T08:53:35.708Z,0
2017-04-12T08:54:49.045Z,0
2017-04-12T08:56:02.893Z,0
2017-04-12T08:57:22.134Z,4
2017-04-12T08:58:35.362Z,4
2017-04-12T08:59:49.172Z,4
2017-04-12T09:01:05.969Z,4
2017-04-12T09:02:19.768Z,8
2017-04-12T09:03:32.906Z,8
2017-04-12T09:04:53.238Z,12
2017-04-12T09:06:05.996Z,16
2017-04-12T09:07:19.910Z,20
2017-04-12T09:08:33.721Z,28
2017-04-12T09:09:46.348Z,40
2017-04-12T09:11:03.142Z,56
2017-04-12T09:12:20.604Z,68
2017-04-12T09:13:37.937Z,84
2017-04-12T09:14:52.370Z,88
2017-04-12T09:16:09.102Z,96
2017-04-12T09:17:25.772Z,92
2017-04-12T09:18:40.810Z,64
2017-04-12T09:20:02.876Z,88
2017-04-12T09:21:19.563Z,88
2017-04-12T09:22:42.412Z,112
2017-04-12T09:23:56.292Z,116
2017-04-12T09:25:14.877Z,104
2017-04-12T09:26:29.364Z,92
2017-04-12T09:27:46.175Z,92
2017-04-12T09:29:00.618Z,96
2017-04-12T09:30:15.066Z,96
2017-04-12T09:31:29.459Z,136
2017-04-12T09:32:49.158Z,156
2017-04-12T09:34:11.023Z,180
2017-04-12T09:35:30.859Z,312
2017-04-12T09:36:47.124Z,436
2017-04-12T09:38:01.573Z,504
2017-04-12T09:39:13.168Z,548
2017-04-12T09:40:29.812Z,596
2017-04-12T09:41:51.655Z,740
2017-04-12T09:43:08.427Z,848
2017-04-12T09:44:21.076Z,876
2017-04-12T09:45:35.554Z,828
2017-04-12T09:46:47.977Z,888
2017-04-12T09:48:00.608Z,892
2017-04-12T09:49:19.839Z,848
2017-04-12T09:50:39.549Z,992
2017-04-12T09:51:53.908Z,1160
2017-04-12T09:53:07.842Z,1188
2017-04-12T09:54:24.487Z,1380
2017-04-12T09:55:47.097Z,1504
2017-04-12T09:57:01.000Z,1636
2017-04-12T09:58:14.190Z,2016
2017-04-12T09:59:30.337Z,2628
2017-04-12T10:00:44.240Z,3120
2017-04-12T10:01:57.479Z,3800
2017-04-12T10:03:11.954Z,3828
2017-04-12T10:04:28.248Z,4164
2017-04-12T10:05:45.035Z,5076
2017-04-12T10:07:01.354Z,5576
2017-04-12T10:08:14.165Z,6280
2017-04-12T10:09:31.607Z,6772
2017-04-12T10:10:44.316Z,7388
2017-04-12T10:11:58.216Z,7260
2017-04-12T10:13:17.949Z,7924
2017-04-12T10:14:34.147Z,8360
2017-04-12T10:15:50.929Z,9116
2017-04-12T10:17:07.134Z,8428
2017-04-12T10:18:20.350Z,9032
2017-04-12T10:19:33.163Z,8664
2017-04-12T10:20:52.243Z,8512
2017-04-12T10:22:06.038Z,9560
2017-04-12T10:23:23.315Z,9440
2017-04-12T10:24:37.167Z,10364
2017-04-12T10:25:50.510Z,10460
2017-04-12T10:27:04.951Z,11368
2017-04-12T10:28:22.311Z,12876
2017-04-12T10:29:39.093Z,14396
2017-04-12T10:30:55.383Z,16764
2017-04-12T10:32:07.487Z,16224
2017-04-12T10:33:21.981Z,14920
2017-04-12T10:34:35.817Z,15048
2017-04-12T10:35:48.379Z,15456
2017-04-12T10:37:02.829Z,14576
2017-04-12T10:38:17.262Z,14736
2017-04-12T10:39:33.440Z,14144
2017-04-12T10:40:47.271Z,14880
2017-04-12T10:41:59.811Z,12788
2017-04-12T10:43:22.347Z,12212
2017-04-12T10:44:42.003Z,9304
2017-04-12T10:45:55.831Z,8112
2017-04-12T10:47:12.124Z,11064
2017-04-12T10:48:31.326Z,13484
2017-04-12T10:49:47.632Z,15244
2017-04-12T10:51:00.044Z,15584
2017-04-12T10:52:16.900Z,20160
2017-04-12T10:53:34.977Z,20320
2017-04-12T10:54:47.109Z,21152
2017-04-12T10:56:03.415Z,20160
2017-04-12T10:57:16.159Z,17760
2017-04-12T10:58:33.000Z,12160
2017-04-12T10:59:48.451Z,12956
2017-04-12T11:01:04.191Z,13956
2017-04-12T11:02:23.260Z,15400
2017-04-12T11:03:35.963Z,12428
2017-04-12T11:04:52.645Z,12392
2017-04-12T11:06:09.450Z,11456
2017-04-12T11:07:23.377Z,13396
2017-04-12T11:08:43.087Z,20352
2017-04-12T11:09:59.391Z,19552
2017-04-12T11:11:13.842Z,19296
2017-04-12T11:12:30.073Z,24576
2017-04-12T11:13:43.888Z,20672
2017-04-12T11:14:59.569Z,14056
2017-04-12T11:16:13.341Z,16080
2017-04-12T11:17:26.204Z,19104
2017-04-12T11:18:39.244Z,23616
2017-04-12T11:19:53.157Z,39488
2017-04-12T11:21:15.828Z,27744
2017-04-12T11:22:35.003Z,59712
2017-04-12T11:24:02.999Z,42816
2017-04-12T11:25:19.812Z,31424
2017-04-12T11:26:33.658Z,49152
2017-04-12T11:27:48.079Z,54048
2017-04-12T11:29:07.694Z,48320
2017-04-12T11:30:20.951Z,29184
2017-04-12T11:31:34.179Z,24512
2017-04-12T11:32:52.174Z,26528
2017-04-12T11:34:08.430Z,24480
2017-04-12T11:35:31.110Z,24640
2017-04-12T11:36:50.875Z,24128
2017-04-12T11:38:04.705Z,26624
2017-04-12T11:39:17.512Z,27552
2017-04-12T11:40:32.650Z,22176
2017-04-12T11:41:45.364Z,20224
2017-04-12T11:42:58.605Z,23136
2017-04-12T11:44:15.329Z,21024
2017-04-12T11:45:29.181Z,21248
2017-04-12T11:46:43.630Z,19232
2017-04-12T11:48:00.277Z,17504
2017-04-12T11:49:13.394Z,17128
2017-04-12T11:50:30.150Z,14356
2017-04-12T11:51:46.390Z,13056
2017-04-12T11:52:59.739Z,15228
2017-04-12T11:54:12.846Z,16320
2017-04-12T11:55:29.617Z,16088
2017-04-12T11:56:45.780Z,16688
2017-04-12T11:58:03.136Z,15992
2017-04-12T11:59:22.336Z,19712
2017-04-12T12:00:39.691Z,22784
2017-04-12T12:01:52.982Z,21120
2017-04-12T12:03:15.664Z,24928
2017-04-12T12:04:29.536Z,24992
2017-04-12T12:05:46.928Z,25376
2017-04-12T12:07:03.181Z,22400
2017-04-12T12:08:15.870Z,22720
2017-04-12T12:09:28.575Z,23744
2017-04-12T12:10:45.387Z,28736
2017-04-12T12:11:58.661Z,27392
2017-04-12T12:13:13.136Z,36096
2017-04-12T12:14:27.567Z,33888
2017-04-12T12:15:41.441Z,26720
2017-04-12T12:16:54.669Z,22432
2017-04-12T12:18:12.749Z,20224
2017-04-12T12:19:29.513Z,18720
2017-04-12T12:20:43.328Z,13768
2017-04-12T12:22:00.032Z,11032
2017-04-12T12:23:16.941Z,11860
2017-04-12T12:24:32.603Z,10660
2017-04-12T12:25:49.974Z,10036
2017-04-12T12:27:06.549Z,9792
2017-04-12T12:28:22.099Z,10752
2017-04-12T12:29:35.956Z,10652
2017-04-12T12:30:49.206Z,10128
2017-04-12T12:32:02.437Z,9272
2017-04-12T12:33:19.820Z,8180
2017-04-12T12:34:33.104Z,8888
2017-04-12T12:35:50.332Z,9076
2017-04-12T12:37:03.072Z,12148
2017-04-12T12:38:16.343Z,14912
2017-04-12T12:39:29.142Z,18592
2017-04-12T12:40:46.496Z,18496
2017-04-12T12:42:03.308Z,19424
2017-04-12T12:43:20.076Z,18176
2017-04-12T12:44:36.862Z,14276
2017-04-12T12:45:53.644Z,17536
2017-04-12T12:47:11.014Z,23616
2017-04-12T12:48:25.439Z,24384
2017-04-12T12:49:42.875Z,34720
2017-04-12T12:51:01.530Z,61152
2017-04-12T12:52:14.668Z,45024
2017-04-12T12:53:30.836Z,46912
2017-04-12T12:54:47.596Z,37024
2017-04-12T12:56:04.336Z,28320
2017-04-12T12:57:18.813Z,24160
2017-04-12T12:58:38.594Z,22240
2017-04-12T12:59:55.357Z,24800
2017-04-12T13:01:15.130Z,29152
2017-04-12T13:02:28.978Z,44448
2017-04-12T13:03:43.464Z,52160
2017-04-12T13:05:06.177Z,65152
2017-04-12T13:06:20.046Z,51744
2017-04-12T13:07:33.832Z,55200
2017-04-12T13:08:46.539Z,109184
2017-04-12T13:09:59.839Z,51968
2017-04-12T13:11:13.566Z,51488
2017-04-12T13:12:33.255Z,69312
2017-04-12T13:13:47.145Z,40672
2017-04-12T13:15:03.448Z,34944
2017-04-12T13:16:17.366Z,37792
2017-04-12T13:17:31.872Z,28480
2017-04-12T13:18:45.757Z,24256
2017-04-12T13:19:59.004Z,21088
2017-04-12T13:21:18.238Z,23264
2017-04-12T13:22:32.698Z,23680
2017-04-12T13:23:47.756Z,24512
2017-04-12T13:25:07.545Z,20960
2017-04-12T13:26:30.237Z,20224
2017-04-12T13:27:47.017Z,17536
2017-04-12T13:29:00.258Z,17696
2017-04-12T13:30:14.122Z,20320
2017-04-12T13:31:27.988Z,18912
2017-04-12T13:32:44.903Z,15476
2017-04-12T13:33:58.731Z,17472
2017-04-12T13:35:12.613Z,22368
2017-04-12T13:36:26.460Z,25952
2017-04-12T13:37:39.700Z,23456
2017-04-12T13:38:56.452Z,24512
2017-04-12T13:40:16.792Z,28512
2017-04-12T13:41:35.953Z,37184
2017-04-12T13:42:49.839Z,43040
2017-04-12T13:44:09.635Z,53888
2017-04-12T13:45:27.022Z,36736
2017-04-12T13:46:46.215Z,24864
2017-04-12T13:48:00.049Z,27776
2017-04-12T13:49:19.806Z,22688
2017-04-12T13:50:39.532Z,15124
2017-04-12T13:51:53.431Z,19104
2017-04-12T13:53:10.281Z,28416
2017-04-12T13:54:26.513Z,35232
2017-04-12T13:55:49.207Z,46624
2017-04-12T13:57:02.516Z,39584
2017-04-12T13:58:15.806Z,46688
2017-04-12T13:59:29.700Z,40320
2017-04-12T14:00:43.599Z,34240
2017-04-12T14:01:56.948Z,37856
2017-04-12T14:03:11.981Z,31520
2017-04-12T14:04:29.375Z,31104
2017-04-12T14:05:46.126Z,27744
2017-04-12T14:07:00.073Z,31040
2017-04-12T14:08:17.467Z,32448
2017-04-12T14:09:42.518Z,45824
2017-04-12T14:10:59.948Z,56224
2017-04-12T14:12:16.733Z,49440
2017-04-12T14:13:33.568Z,49504
2017-04-12T14:14:47.315Z,45664
2017-04-12T14:16:01.810Z,31712
2017-04-12T14:17:18.101Z,23712
2017-04-12T14:18:34.929Z,28448
2017-04-12T14:19:57.593Z,42208
2017-04-12T14:21:10.951Z,42016
2017-04-12T14:22:24.184Z,33664
2017-04-12T14:23:37.434Z,28096
2017-04-12T14:24:51.915Z,22816
2017-04-12T14:26:08.178Z,18144
2017-04-12T14:27:24.963Z,16980
2017-04-12T14:28:43.978Z,14700
2017-04-12T14:30:01.359Z,11412
2017-04-12T14:31:17.697Z,13248
2017-04-12T14:32:34.498Z,14960
2017-04-12T14:33:48.932Z,14680
2017-04-12T14:35:05.700Z,18304
2017-04-12T14:36:19.510Z,21856
2017-04-12T14:37:33.950Z,24448
2017-04-12T14:38:50.690Z,28512
2017-04-12T14:40:07.411Z,30528
2017-04-12T14:41:27.696Z,32352
2017-04-12T14:42:41.509Z,34592
2017-04-12T14:43:57.795Z,37248
2017-04-12T14:45:11.649Z,38784
2017-04-12T14:46:25.442Z,39456
2017-04-12T14:47:42.244Z,38560
2017-04-12T14:49:04.933Z,41312
2017-04-12T14:50:21.757Z,40064
2017-04-12T14:51:39.142Z,42048
2017-04-12T14:52:58.855Z,44384
2017-04-12T14:54:15.624Z,41600
2017-04-12T14:55:32.423Z,62048
2017-04-12T14:56:45.271Z,97216
2017-04-12T14:58:02.096Z,70528
2017-04-12T14:59:15.923Z,66816
2017-04-12T15:00:29.729Z,63936
2017-04-12T15:01:48.905Z,72288
2017-04-12T15:03:02.770Z,116608
2017-04-12T15:04:17.199Z,95808
2017-04-12T15:05:31.047Z,86016
2017-04-12T15:06:53.681Z,85216
2017-04-12T15:08:09.368Z,78016
2017-04-12T15:09:22.077Z,83136
2017-04-12T15:10:38.849Z,111968
2017-04-12T15:11:58.595Z,122048
2017-04-12T15:13:21.291Z,149984
2017-04-12T15:14:40.524Z,105184
2017-04-12T15:15:57.185Z,80352
2017-04-12T15:17:13.382Z,63136
2017-04-12T15:18:27.218Z,65728
2017-04-12T15:19:40.572Z,119136
2017-04-12T15:20:54.982Z,101536
2017-04-12T15:22:13.986Z,49408
2017-04-12T15:23:26.784Z,38208
2017-04-12T15:24:43.534Z,40032
2017-04-12T15:26:03.347Z,51712
2017-04-12T15:27:16.785Z,56768
2017-04-12T15:28:30.051Z,77024
2017-04-12T15:29:45.128Z,51392
2017-04-12T15:31:04.139Z,38208
2017-04-12T15:32:18.588Z,37088
2017-04-12T15:33:33.035Z,40992
2017-04-12T15:34:46.362Z,47456
2017-04-12T15:36:03.187Z,47072
2017-04-12T15:37:20.599Z,38144
2017-04-12T15:38:37.999Z,38112
2017-04-12T15:39:52.443Z,52064
2017-04-12T15:41:06.261Z,110784
2017-04-12T15:42:20.100Z,122528
2017-04-12T15:43:35.143Z,125664
2017-04-12T15:44:51.898Z,148448
2017-04-12T15:46:05.122Z,120960
2017-04-12T15:47:18.391Z,54912
2017-04-12T15:48:32.226Z,34272
2017-04-12T15:49:46.611Z,26688
2017-04-12T15:51:04.040Z,17024
2017-04-12T15:52:20.830Z,12252
2017-04-12T15:53:40.570Z,11680
2017-04-12T15:55:00.285Z,14456
2017-04-12T15:56:13.411Z,16112
2017-04-12T15:57:26.549Z,17824
2017-04-12T15:58:40.419Z,17920
2017-04-12T15:59:54.279Z,21920
2017-04-12T16:01:07.642Z,30240
2017-04-12T16:02:21.486Z,38176
2017-04-12T16:03:38.215Z,50784
2017-04-12T16:04:57.982Z,106368
2017-04-12T16:06:15.401Z,85792
2017-04-12T16:07:32.196Z,71872
2017-04-12T16:08:44.992Z,74880
2017-04-12T16:09:57.707Z,84800
2017-04-12T16:11:18.045Z,46720
2017-04-12T16:12:34.853Z,33376
2017-04-12T16:13:48.669Z,33152
2017-04-12T16:15:03.158Z,29376
2017-04-12T16:16:16.470Z,25312
2017-04-12T16:17:30.306Z,22784
2017-04-12T16:18:44.749Z,20960
2017-04-12T16:19:58.087Z,20160
2017-04-12T16:21:15.495Z,21184
2017-04-12T16:22:31.640Z,22368
2017-04-12T16:23:47.911Z,26048
2017-04-12T16:25:02.347Z,28288
2017-04-12T16:26:15.563Z,29920
2017-04-12T16:27:28.936Z,30240
2017-04-12T16:28:43.379Z,25600
2017-04-12T16:30:02.608Z,24896
2017-04-12T16:31:15.993Z,25280
2017-04-12T16:32:29.816Z,27168
2017-04-12T16:33:43.658Z,31744
2017-04-12T16:35:04.030Z,32512
2017-04-12T16:36:17.882Z,33536
2017-04-12T16:37:38.239Z,34272
2017-04-12T16:38:52.101Z,32704
2017-04-12T16:40:09.511Z,33152
2017-04-12T16:41:23.962Z,34656
2017-04-12T16:42:38.404Z,35488
2017-04-12T16:43:52.258Z,28320
2017-04-12T16:45:06.103Z,25920
2017-04-12T16:46:23.539Z,25120
2017-04-12T16:47:40.368Z,22144
2017-04-12T16:49:03.021Z,19072
2017-04-12T16:50:19.779Z,23680
2017-04-12T16:51:33.604Z,21696
2017-04-12T16:52:48.198Z,17048
2017-04-12T16:54:02.638Z,14204
2017-04-12T16:55:19.453Z,16036
2017-04-12T16:56:33.954Z,16136
2017-04-12T16:57:47.822Z,22784
2017-04-12T16:59:04.621Z,25536
2017-04-12T17:00:18.368Z,28704
2017-04-12T17:01:38.124Z,24640
2017-04-12T17:02:55.521Z,20352
2017-04-12T17:04:09.400Z,22784
2017-04-12T17:05:26.230Z,25696
2017-04-12T17:06:42.450Z,28992
2017-04-12T17:07:59.281Z,36928
2017-04-12T17:09:13.039Z,35744
2017-04-12T17:10:27.456Z,36448
2017-04-12T17:11:47.200Z,35008
2017-04-12T17:13:02.241Z,22272
2017-04-12T17:14:21.931Z,19648
2017-04-12T17:15:44.589Z,16396
2017-04-12T17:17:00.754Z,13360
2017-04-12T17:18:19.928Z,11216
2017-04-12T17:19:34.400Z,12216
2017-04-12T17:20:48.285Z,10244
2017-04-12T17:22:05.656Z,11712
2017-04-12T17:23:28.292Z,11328
2017-04-12T17:24:45.680Z,11072
2017-04-12T17:25:59.528Z,10944
2017-04-12T17:27:13.988Z,10832
2017-04-12T17:28:31.315Z,12172
2017-04-12T17:29:45.261Z,13640
2017-04-12T17:30:58.981Z,14636
2017-04-12T17:32:18.691Z,14016
2017-04-12T17:33:32.578Z,14544
2017-04-12T17:34:46.505Z,16400
2017-04-12T17:36:00.407Z,18752